<?xml version="1.0" encoding="UTF-8" standalone="no" ?>
<gpx xmlns="http://www.topografix.com/GPX/1/1" xmlns:xsi="http://www.w3.org/2001/XMLSchema-instance" xsi:schemaLocation="http://www.topografix.com/GPX/1/1 http://www.topografix.com/GPX/1/1/gpx.xsd" version="1.1" creator="VisuGPX - https://www.visugpx.com">
  <metadata>
    <name>Etape 2 Férel - Les Moûtiers</name>
    <desc><![CDATA[Randonnée vélo Rennes - Hendaye, empruntant la Vélodyssée à partir de Saint-Brevin-Les-Pins. ]]></desc>
  </metadata>
  <trk>
    <name><![CDATA[Sequence 31]]></name>
    <trkseg>
      <trkpt lat="47.11038" lon="-2.09895">
        <ele>29</ele>
        <time>2016-07-22T14:17:16Z</time>
      </trkpt>
      <trkpt lat="47.11044" lon="-2.09867">
        <ele>29</ele>
        <time>2016-07-22T14:17:21Z</time>
      </trkpt>
      <trkpt lat="47.11043" lon="-2.09835">
        <ele>30</ele>
        <time>2016-07-22T14:17:26Z</time>
      </trkpt>
      <trkpt lat="47.11037" lon="-2.09803">
        <ele>29</ele>
        <time>2016-07-22T14:17:31Z</time>
      </trkpt>
      <trkpt lat="47.11026" lon="-2.09774">
        <ele>29</ele>
        <time>2016-07-22T14:17:36Z</time>
      </trkpt>
      <trkpt lat="47.11013" lon="-2.09723">
        <ele>29</ele>
        <time>2016-07-22T14:17:43Z</time>
      </trkpt>
      <trkpt lat="47.10995" lon="-2.09677">
        <ele>26</ele>
        <time>2016-07-22T14:17:50Z</time>
      </trkpt>
      <trkpt lat="47.10991" lon="-2.09661">
        <ele>25</ele>
        <time>2016-07-22T14:17:52Z</time>
      </trkpt>
      <trkpt lat="47.1098" lon="-2.09619">
        <ele>25</ele>
        <time>2016-07-22T14:17:58Z</time>
      </trkpt>
      <trkpt lat="47.10974" lon="-2.09595">
        <ele>24</ele>
        <time>2016-07-22T14:18:01Z</time>
      </trkpt>
      <trkpt lat="47.1096" lon="-2.09543">
        <ele>23</ele>
        <time>2016-07-22T14:18:07Z</time>
      </trkpt>
      <trkpt lat="47.10952" lon="-2.09523">
        <ele>23</ele>
        <time>2016-07-22T14:18:11Z</time>
      </trkpt>
      <trkpt lat="47.10939" lon="-2.09499">
        <ele>24</ele>
        <time>2016-07-22T14:18:16Z</time>
      </trkpt>
      <trkpt lat="47.10929" lon="-2.09469">
        <ele>25</ele>
        <time>2016-07-22T14:18:21Z</time>
      </trkpt>
      <trkpt lat="47.10914" lon="-2.09438">
        <ele>24</ele>
        <time>2016-07-22T14:18:26Z</time>
      </trkpt>
      <trkpt lat="47.10903" lon="-2.09404">
        <ele>20</ele>
        <time>2016-07-22T14:18:31Z</time>
      </trkpt>
      <trkpt lat="47.10885" lon="-2.09376">
        <ele>20</ele>
        <time>2016-07-22T14:18:36Z</time>
      </trkpt>
      <trkpt lat="47.10868" lon="-2.09347">
        <ele>20</ele>
        <time>2016-07-22T14:18:41Z</time>
      </trkpt>
      <trkpt lat="47.10854" lon="-2.09316">
        <ele>21</ele>
        <time>2016-07-22T14:18:46Z</time>
      </trkpt>
      <trkpt lat="47.1084" lon="-2.09281">
        <ele>21</ele>
        <time>2016-07-22T14:18:51Z</time>
      </trkpt>
      <trkpt lat="47.10831" lon="-2.09243">
        <ele>21</ele>
        <time>2016-07-22T14:18:56Z</time>
      </trkpt>
      <trkpt lat="47.10826" lon="-2.09204">
        <ele>21</ele>
        <time>2016-07-22T14:19:01Z</time>
      </trkpt>
      <trkpt lat="47.10821" lon="-2.09165">
        <ele>23</ele>
        <time>2016-07-22T14:19:06Z</time>
      </trkpt>
      <trkpt lat="47.10815" lon="-2.09131">
        <ele>22</ele>
        <time>2016-07-22T14:19:11Z</time>
      </trkpt>
      <trkpt lat="47.10797" lon="-2.09096">
        <ele>23</ele>
        <time>2016-07-22T14:19:18Z</time>
      </trkpt>
      <trkpt lat="47.10785" lon="-2.09083">
        <ele>22</ele>
        <time>2016-07-22T14:19:21Z</time>
      </trkpt>
      <trkpt lat="47.10764" lon="-2.0907">
        <ele>21</ele>
        <time>2016-07-22T14:19:26Z</time>
      </trkpt>
      <trkpt lat="47.10752" lon="-2.09068">
        <ele>22</ele>
        <time>2016-07-22T14:19:31Z</time>
      </trkpt>
      <trkpt lat="47.10748" lon="-2.09049">
        <ele>25</ele>
        <time>2016-07-22T14:19:36Z</time>
      </trkpt>
      <trkpt lat="47.10739" lon="-2.09006">
        <ele>22</ele>
        <time>2016-07-22T14:19:42Z</time>
      </trkpt>
      <trkpt lat="47.10732" lon="-2.08968">
        <ele>21</ele>
        <time>2016-07-22T14:19:47Z</time>
      </trkpt>
      <trkpt lat="47.10739" lon="-2.08928">
        <ele>23</ele>
        <time>2016-07-22T14:19:53Z</time>
      </trkpt>
      <trkpt lat="47.10756" lon="-2.08893">
        <ele>24</ele>
        <time>2016-07-22T14:19:59Z</time>
      </trkpt>
      <trkpt lat="47.1076" lon="-2.08883">
        <ele>26</ele>
        <time>2016-07-22T14:20:01Z</time>
      </trkpt>
      <trkpt lat="47.10765" lon="-2.08852">
        <ele>25</ele>
        <time>2016-07-22T14:20:06Z</time>
      </trkpt>
      <trkpt lat="47.10766" lon="-2.0882">
        <ele>19</ele>
        <time>2016-07-22T14:20:11Z</time>
      </trkpt>
      <trkpt lat="47.10753" lon="-2.08782">
        <ele>24</ele>
        <time>2016-07-22T14:20:18Z</time>
      </trkpt>
      <trkpt lat="47.10749" lon="-2.08764">
        <ele>24</ele>
        <time>2016-07-22T14:20:21Z</time>
      </trkpt>
      <trkpt lat="47.10738" lon="-2.08727">
        <ele>23</ele>
        <time>2016-07-22T14:20:27Z</time>
      </trkpt>
      <trkpt lat="47.10733" lon="-2.08703">
        <ele>22</ele>
        <time>2016-07-22T14:20:31Z</time>
      </trkpt>
      <trkpt lat="47.10724" lon="-2.08666">
        <ele>23</ele>
        <time>2016-07-22T14:20:38Z</time>
      </trkpt>
      <trkpt lat="47.10717" lon="-2.0865">
        <ele>23</ele>
        <time>2016-07-22T14:20:41Z</time>
      </trkpt>
      <trkpt lat="47.10708" lon="-2.08621">
        <ele>25</ele>
        <time>2016-07-22T14:20:46Z</time>
      </trkpt>
      <trkpt lat="47.10706" lon="-2.08581">
        <ele>25</ele>
        <time>2016-07-22T14:20:51Z</time>
      </trkpt>
      <trkpt lat="47.10702" lon="-2.08528">
        <ele>25</ele>
        <time>2016-07-22T14:20:57Z</time>
      </trkpt>
      <trkpt lat="47.10683" lon="-2.08465">
        <ele>24</ele>
        <time>2016-07-22T14:21:05Z</time>
      </trkpt>
      <trkpt lat="47.10675" lon="-2.08451">
        <ele>24</ele>
        <time>2016-07-22T14:21:07Z</time>
      </trkpt>
      <trkpt lat="47.1066" lon="-2.08425">
        <ele>26</ele>
        <time>2016-07-22T14:21:11Z</time>
      </trkpt>
      <trkpt lat="47.10642" lon="-2.08392">
        <ele>25</ele>
        <time>2016-07-22T14:21:16Z</time>
      </trkpt>
      <trkpt lat="47.10625" lon="-2.08359">
        <ele>24</ele>
        <time>2016-07-22T14:21:21Z</time>
      </trkpt>
      <trkpt lat="47.10608" lon="-2.08331">
        <ele>23</ele>
        <time>2016-07-22T14:21:26Z</time>
      </trkpt>
      <trkpt lat="47.10596" lon="-2.08302">
        <ele>22</ele>
        <time>2016-07-22T14:21:31Z</time>
      </trkpt>
      <trkpt lat="47.10579" lon="-2.08277">
        <ele>23</ele>
        <time>2016-07-22T14:21:36Z</time>
      </trkpt>
      <trkpt lat="47.10563" lon="-2.08247">
        <ele>23</ele>
        <time>2016-07-22T14:21:41Z</time>
      </trkpt>
      <trkpt lat="47.10547" lon="-2.08214">
        <ele>23</ele>
        <time>2016-07-22T14:21:46Z</time>
      </trkpt>
      <trkpt lat="47.10529" lon="-2.08175">
        <ele>22</ele>
        <time>2016-07-22T14:21:51Z</time>
      </trkpt>
      <trkpt lat="47.1051" lon="-2.08134">
        <ele>20</ele>
        <time>2016-07-22T14:21:56Z</time>
      </trkpt>
      <trkpt lat="47.10492" lon="-2.08096">
        <ele>20</ele>
        <time>2016-07-22T14:22:01Z</time>
      </trkpt>
      <trkpt lat="47.10476" lon="-2.08062">
        <ele>21</ele>
        <time>2016-07-22T14:22:06Z</time>
      </trkpt>
      <trkpt lat="47.10456" lon="-2.08038">
        <ele>20</ele>
        <time>2016-07-22T14:22:11Z</time>
      </trkpt>
      <trkpt lat="47.10436" lon="-2.08015">
        <ele>20</ele>
        <time>2016-07-22T14:22:16Z</time>
      </trkpt>
      <trkpt lat="47.10423" lon="-2.08009">
        <ele>19</ele>
        <time>2016-07-22T14:22:21Z</time>
      </trkpt>
      <trkpt lat="47.10416" lon="-2.07984">
        <ele>21</ele>
        <time>2016-07-22T14:22:26Z</time>
      </trkpt>
      <trkpt lat="47.10409" lon="-2.0795">
        <ele>22</ele>
        <time>2016-07-22T14:22:31Z</time>
      </trkpt>
      <trkpt lat="47.10388" lon="-2.07891">
        <ele>21</ele>
        <time>2016-07-22T14:22:39Z</time>
      </trkpt>
      <trkpt lat="47.10386" lon="-2.07875">
        <ele>20</ele>
        <time>2016-07-22T14:22:41Z</time>
      </trkpt>
      <trkpt lat="47.10393" lon="-2.07829">
        <ele>19</ele>
        <time>2016-07-22T14:22:48Z</time>
      </trkpt>
      <trkpt lat="47.10414" lon="-2.07807">
        <ele>19</ele>
        <time>2016-07-22T14:22:53Z</time>
      </trkpt>
      <trkpt lat="47.10428" lon="-2.07791">
        <ele>20</ele>
        <time>2016-07-22T14:22:57Z</time>
      </trkpt>
      <trkpt lat="47.10443" lon="-2.07775">
        <ele>21</ele>
        <time>2016-07-22T14:23:01Z</time>
      </trkpt>
      <trkpt lat="47.10475" lon="-2.07742">
        <ele>24</ele>
        <time>2016-07-22T14:23:10Z</time>
      </trkpt>
      <trkpt lat="47.10478" lon="-2.0774">
        <ele>25</ele>
        <time>2016-07-22T14:23:11Z</time>
      </trkpt>
      <trkpt lat="47.10496" lon="-2.07723">
        <ele>26</ele>
        <time>2016-07-22T14:23:16Z</time>
      </trkpt>
      <trkpt lat="47.10517" lon="-2.07703">
        <ele>27</ele>
        <time>2016-07-22T14:23:22Z</time>
      </trkpt>
      <trkpt lat="47.10532" lon="-2.07691">
        <ele>27</ele>
        <time>2016-07-22T14:23:26Z</time>
      </trkpt>
      <trkpt lat="47.10555" lon="-2.07664">
        <ele>29</ele>
        <time>2016-07-22T14:23:33Z</time>
      </trkpt>
      <trkpt lat="47.1057" lon="-2.07651">
        <ele>28</ele>
        <time>2016-07-22T14:23:37Z</time>
      </trkpt>
      <trkpt lat="47.10583" lon="-2.07638">
        <ele>28</ele>
        <time>2016-07-22T14:23:41Z</time>
      </trkpt>
      <trkpt lat="47.10604" lon="-2.0762">
        <ele>27</ele>
        <time>2016-07-22T14:23:46Z</time>
      </trkpt>
      <trkpt lat="47.10622" lon="-2.07599">
        <ele>32</ele>
        <time>2016-07-22T14:23:51Z</time>
      </trkpt>
      <trkpt lat="47.10642" lon="-2.0758">
        <ele>35</ele>
        <time>2016-07-22T14:23:56Z</time>
      </trkpt>
      <trkpt lat="47.10653" lon="-2.07563">
        <ele>37</ele>
        <time>2016-07-22T14:24:01Z</time>
      </trkpt>
      <trkpt lat="47.10653" lon="-2.0756">
        <ele>36</ele>
        <time>2016-07-22T14:24:06Z</time>
      </trkpt>
      <trkpt lat="47.10651" lon="-2.07545">
        <ele>35</ele>
        <time>2016-07-22T14:24:11Z</time>
      </trkpt>
      <trkpt lat="47.10645" lon="-2.07518">
        <ele>33</ele>
        <time>2016-07-22T14:24:16Z</time>
      </trkpt>
      <trkpt lat="47.10636" lon="-2.07486">
        <ele>32</ele>
        <time>2016-07-22T14:24:21Z</time>
      </trkpt>
      <trkpt lat="47.10621" lon="-2.0742">
        <ele>30</ele>
        <time>2016-07-22T14:24:30Z</time>
      </trkpt>
      <trkpt lat="47.10619" lon="-2.07413">
        <ele>29</ele>
        <time>2016-07-22T14:24:31Z</time>
      </trkpt>
      <trkpt lat="47.1061" lon="-2.07375">
        <ele>28</ele>
        <time>2016-07-22T14:24:36Z</time>
      </trkpt>
      <trkpt lat="47.10603" lon="-2.07337">
        <ele>28</ele>
        <time>2016-07-22T14:24:41Z</time>
      </trkpt>
      <trkpt lat="47.10603" lon="-2.07301">
        <ele>28</ele>
        <time>2016-07-22T14:24:46Z</time>
      </trkpt>
      <trkpt lat="47.10607" lon="-2.07273">
        <ele>31</ele>
        <time>2016-07-22T14:24:53Z</time>
      </trkpt>
      <trkpt lat="47.10607" lon="-2.07272">
        <ele>31</ele>
        <time>2016-07-22T14:24:56Z</time>
      </trkpt>
      <trkpt lat="47.10605" lon="-2.07268">
        <ele>32</ele>
        <time>2016-07-22T14:25:01Z</time>
      </trkpt>
      <trkpt lat="47.10594" lon="-2.07245">
        <ele>33</ele>
        <time>2016-07-22T14:25:06Z</time>
      </trkpt>
      <trkpt lat="47.10579" lon="-2.07212">
        <ele>35</ele>
        <time>2016-07-22T14:25:11Z</time>
      </trkpt>
      <trkpt lat="47.10563" lon="-2.07155">
        <ele>35</ele>
        <time>2016-07-22T14:25:19Z</time>
      </trkpt>
      <trkpt lat="47.1056" lon="-2.07138">
        <ele>34</ele>
        <time>2016-07-22T14:25:21Z</time>
      </trkpt>
      <trkpt lat="47.10551" lon="-2.07104">
        <ele>33</ele>
        <time>2016-07-22T14:25:26Z</time>
      </trkpt>
      <trkpt lat="47.10535" lon="-2.07043">
        <ele>30</ele>
        <time>2016-07-22T14:25:34Z</time>
      </trkpt>
      <trkpt lat="47.10531" lon="-2.07019">
        <ele>29</ele>
        <time>2016-07-22T14:25:37Z</time>
      </trkpt>
      <trkpt lat="47.10519" lon="-2.0698">
        <ele>31</ele>
        <time>2016-07-22T14:25:42Z</time>
      </trkpt>
      <trkpt lat="47.10508" lon="-2.06937">
        <ele>30</ele>
        <time>2016-07-22T14:25:48Z</time>
      </trkpt>
      <trkpt lat="47.10499" lon="-2.0691">
        <ele>28</ele>
        <time>2016-07-22T14:25:52Z</time>
      </trkpt>
      <trkpt lat="47.10495" lon="-2.06881">
        <ele>28</ele>
        <time>2016-07-22T14:25:56Z</time>
      </trkpt>
      <trkpt lat="47.10481" lon="-2.0683">
        <ele>30</ele>
        <time>2016-07-22T14:26:03Z</time>
      </trkpt>
      <trkpt lat="47.10472" lon="-2.06792">
        <ele>29</ele>
        <time>2016-07-22T14:26:08Z</time>
      </trkpt>
      <trkpt lat="47.10461" lon="-2.06757">
        <ele>29</ele>
        <time>2016-07-22T14:26:13Z</time>
      </trkpt>
      <trkpt lat="47.10453" lon="-2.0672">
        <ele>28</ele>
        <time>2016-07-22T14:26:18Z</time>
      </trkpt>
      <trkpt lat="47.10444" lon="-2.06702">
        <ele>30</ele>
        <time>2016-07-22T14:26:21Z</time>
      </trkpt>
      <trkpt lat="47.10427" lon="-2.0665">
        <ele>31</ele>
        <time>2016-07-22T14:26:29Z</time>
      </trkpt>
      <trkpt lat="47.10424" lon="-2.06635">
        <ele>31</ele>
        <time>2016-07-22T14:26:31Z</time>
      </trkpt>
      <trkpt lat="47.10414" lon="-2.06594">
        <ele>36</ele>
        <time>2016-07-22T14:26:37Z</time>
      </trkpt>
      <trkpt lat="47.10408" lon="-2.06569">
        <ele>34</ele>
        <time>2016-07-22T14:26:41Z</time>
      </trkpt>
      <trkpt lat="47.10398" lon="-2.06533">
        <ele>33</ele>
        <time>2016-07-22T14:26:46Z</time>
      </trkpt>
      <trkpt lat="47.10387" lon="-2.06499">
        <ele>32</ele>
        <time>2016-07-22T14:26:51Z</time>
      </trkpt>
      <trkpt lat="47.10377" lon="-2.06464">
        <ele>36</ele>
        <time>2016-07-22T14:26:56Z</time>
      </trkpt>
      <trkpt lat="47.10356" lon="-2.06398">
        <ele>35</ele>
        <time>2016-07-22T14:27:05Z</time>
      </trkpt>
      <trkpt lat="47.10347" lon="-2.0636">
        <ele>36</ele>
        <time>2016-07-22T14:27:10Z</time>
      </trkpt>
      <trkpt lat="47.10345" lon="-2.06353">
        <ele>36</ele>
        <time>2016-07-22T14:27:11Z</time>
      </trkpt>
      <trkpt lat="47.10335" lon="-2.06316">
        <ele>35</ele>
        <time>2016-07-22T14:27:16Z</time>
      </trkpt>
      <trkpt lat="47.10323" lon="-2.06279">
        <ele>33</ele>
        <time>2016-07-22T14:27:21Z</time>
      </trkpt>
      <trkpt lat="47.10309" lon="-2.06236">
        <ele>34</ele>
        <time>2016-07-22T14:27:27Z</time>
      </trkpt>
      <trkpt lat="47.103" lon="-2.06205">
        <ele>34</ele>
        <time>2016-07-22T14:27:31Z</time>
      </trkpt>
      <trkpt lat="47.10289" lon="-2.06168">
        <ele>35</ele>
        <time>2016-07-22T14:27:36Z</time>
      </trkpt>
      <trkpt lat="47.10277" lon="-2.0613">
        <ele>36</ele>
        <time>2016-07-22T14:27:41Z</time>
      </trkpt>
      <trkpt lat="47.10267" lon="-2.06095">
        <ele>36</ele>
        <time>2016-07-22T14:27:46Z</time>
      </trkpt>
      <trkpt lat="47.10256" lon="-2.06062">
        <ele>35</ele>
        <time>2016-07-22T14:27:51Z</time>
      </trkpt>
      <trkpt lat="47.10243" lon="-2.06032">
        <ele>36</ele>
        <time>2016-07-22T14:27:56Z</time>
      </trkpt>
      <trkpt lat="47.1024" lon="-2.06024">
        <ele>37</ele>
        <time>2016-07-22T14:28:01Z</time>
      </trkpt>
    </trkseg>
  </trk>
</gpx>